Kinoura — 3FHE5 — position and weather

sailwx.info

Track history (hours):
 
Tides and Currents Weather Stations Pressure Air Temp Water Temp Dewpoint Dewpoint Depression Visibility Wind Speed Wind Dir Waves Ship Positions

Kinoura

Last reported at 2014-Jul-14 23:06 UTC. Time now 2014-Jul-24 23:05 UTC.
Position S 27°09' E 153°55'.
Warning: this ship's position is 9 days out of date.

Length 227 m; draft 14.4 m.

Type: Cargo ship. MMSI: 373041000.

Date/timePositionNaut miles runAvg speedWind from/ knotsBaromVisibWave heightAir tempDewpointWater temp
2014-Jul-14 23:06S 27°09' E 153°55'2710.4
2014-Jul-14 20:32S 27°36' E 153°53'1210.6
2014-Jul-14 19:22S 27°48' E 153°53'1310.7
2014-Jul-14 18:10S 28°01' E 153°52'283 9.6
2014-Jul-13 12:33S 32°37' E 152°38'1010.2
2014-Jul-13 11:33S 32°44' E 152°30'1010.5
2014-Jul-13 10:33S 32°50' E 152°19'1110.7
2014-Jul-13 09:33S 32°54' E 152°07'1010.4
2014-Jul-13 08:33S 32°57' E 151°56'7 7.3
2014-Jul-13 07:33S 32°55' E 151°47'3 2.9
2014-Jul-13 06:32S 32°53' E 151°45'0 0.0
2014-Jul-13 02:18S 32°53' E 151°45'0 0.0
2014-Jul-13 01:06S 32°53' E 151°45'0 0.0
2014-Jul-12 19:30S 32°53' E 151°45'0 0.0
2014-Jul-12 16:30S 32°53' E 151°45'0 0.0
2014-Jul-12 15:30S 32°53' E 151°45'0 0.0
2014-Jul-12 13:12S 32°53' E 151°45'0 0.0
2014-Jul-12 12:30S 32°53' E 151°45'0 0.0
2014-Jul-12 11:30S 32°53' E 151°45'0 0.0
2014-Jul-12 10:30S 32°53' E 151°45'0 0.0
2014-Jul-12 09:24S 32°53' E 151°45'0 0.0
2014-Jul-12 08:30S 32°53' E 151°45'0 0.0
2014-Jul-12 07:06S 32°53' E 151°45'0 0.0
2014-Jul-12 06:30S 32°53' E 151°45'0 0.0
2014-Jul-12 05:30S 32°53' E 151°45'0 0.2
2014-Jul-12 04:33S 32°53' E 151°45'3 2.9
2014-Jul-12 03:33S 32°55' E 151°47'7 7.0
2014-Jul-12 02:33S 32°59' E 151°54'4 4.4
2014-Jul-12 01:33S 33°04' E 151°56'9 8.4
2014-Jul-12 00:32S 33°11' E 152°01'2 1.6
2014-Jul-11 23:28S 33°09' E 152°00'2 1.7
2014-Jul-11 22:28S 33°08' E 152°00'2 1.6
2014-Jul-11 21:31S 33°06' E 152°00'2 1.6
2014-Jul-11 20:28S 33°04' E 152°01'2 1.8
2014-Jul-11 19:33S 33°03' E 152°01'2 1.8
2014-Jul-11 18:31S 33°01' E 152°01'1 1.3
2014-Jul-11 17:31S 32°60' E 152°00'4 4.2
2014-Jul-11 16:34S 32°56' E 152°02'1111.2
2014-Jul-11 15:34S 32°51' E 152°14'1110.5
2014-Jul-11 14:33S 32°47' E 152°26'1111.3
2014-Jul-11 13:33S 32°39' E 152°35'27512.9
2014-Jul-10 16:14S 28°12' E 153°51'1014.4
2014-Jul-10 15:33S 28°02' E 153°52'1414.1
2014-Jul-10 14:34S 27°48' E 153°53'1413.4
2014-Jul-10 13:33S 27°35' E 153°53'2512.7
2014-Jul-10 11:33S 27°10' E 153°54'  
Track history (hours):
 
Tides and Currents Weather Stations Pressure Air Temp Water Temp Dewpoint Dewpoint Depression Visibility Wind Speed Wind Dir Waves Ship Positions

Kinoura

Last reported at 2014-Jul-14 23:06 UTC. Time now 2014-Jul-24 23:05 UTC.
Position S 27°09' E 153°55'.
Warning: this ship's position is 9 days out of date.

Length 227 m; draft 14.4 m.

Type: Cargo ship. MMSI: 373041000.

Date/timePositionNaut miles runAvg speedWind from/ knotsBaromVisibWave heightAir tempDewpointWater temp
2014-Jul-14 23:06S 27°09' E 153°55'2710.4
2014-Jul-14 20:32S 27°36' E 153°53'1210.6
2014-Jul-14 19:22S 27°48' E 153°53'1310.7
2014-Jul-14 18:10S 28°01' E 153°52'283 9.6
2014-Jul-13 12:33S 32°37' E 152°38'1010.2
2014-Jul-13 11:33S 32°44' E 152°30'1010.5
2014-Jul-13 10:33S 32°50' E 152°19'1110.7
2014-Jul-13 09:33S 32°54' E 152°07'1010.4
2014-Jul-13 08:33S 32°57' E 151°56'7 7.3
2014-Jul-13 07:33S 32°55' E 151°47'3 2.9
2014-Jul-13 06:32S 32°53' E 151°45'0 0.0
2014-Jul-13 02:18S 32°53' E 151°45'0 0.0
2014-Jul-13 01:06S 32°53' E 151°45'0 0.0
2014-Jul-12 19:30S 32°53' E 151°45'0 0.0
2014-Jul-12 16:30S 32°53' E 151°45'0 0.0
2014-Jul-12 15:30S 32°53' E 151°45'0 0.0
2014-Jul-12 13:12S 32°53' E 151°45'0 0.0
2014-Jul-12 12:30S 32°53' E 151°45'0 0.0
2014-Jul-12 11:30S 32°53' E 151°45'0 0.0
2014-Jul-12 10:30S 32°53' E 151°45'0 0.0
2014-Jul-12 09:24S 32°53' E 151°45'0 0.0
2014-Jul-12 08:30S 32°53' E 151°45'0 0.0
2014-Jul-12 07:06S 32°53' E 151°45'0 0.0
2014-Jul-12 06:30S 32°53' E 151°45'0 0.0
2014-Jul-12 05:30S 32°53' E 151°45'0 0.2
2014-Jul-12 04:33S 32°53' E 151°45'3 2.9
2014-Jul-12 03:33S 32°55' E 151°47'7 7.0
2014-Jul-12 02:33S 32°59' E 151°54'4 4.4
2014-Jul-12 01:33S 33°04' E 151°56'9 8.4
2014-Jul-12 00:32S 33°11' E 152°01'2 1.6
2014-Jul-11 23:28S 33°09' E 152°00'2 1.7
2014-Jul-11 22:28S 33°08' E 152°00'2 1.6
2014-Jul-11 21:31S 33°06' E 152°00'2 1.6
2014-Jul-11 20:28S 33°04' E 152°01'2 1.8
2014-Jul-11 19:33S 33°03' E 152°01'2 1.8
2014-Jul-11 18:31S 33°01' E 152°01'1 1.3
2014-Jul-11 17:31S 32°60' E 152°00'4 4.2
2014-Jul-11 16:34S 32°56' E 152°02'1111.2
2014-Jul-11 15:34S 32°51' E 152°14'1110.5
2014-Jul-11 14:33S 32°47' E 152°26'1111.3
2014-Jul-11 13:33S 32°39' E 152°35'27512.9
2014-Jul-10 16:14S 28°12' E 153°51'1014.4
2014-Jul-10 15:33S 28°02' E 153°52'1414.1
2014-Jul-10 14:34S 27°48' E 153°53'1413.4
2014-Jul-10 13:33S 27°35' E 153°53'2512.7
2014-Jul-10 11:33S 27°10' E 153°54'  

Dump ship's entire track history